createdAt,value
2023-04-21T00:00:36.997Z,8.2
2023-04-21T00:06:59.981Z,12.4
2023-04-21T00:13:19.978Z,12.4
2023-04-21T00:19:42.955Z,8.5
2023-04-21T00:26:03.227Z,8.5
2023-04-21T00:32:26.059Z,11.8
2023-04-21T00:38:46.072Z,11.8
2023-04-21T00:45:08.984Z,10.4
2023-04-21T00:51:29.072Z,10.4
2023-04-21T00:57:52.121Z,12.9
2023-04-21T01:04:12.064Z,12.9
2023-04-21T01:10:34.974Z,15
2023-04-21T01:16:55.124Z,15
2023-04-21T01:23:17.997Z,16.1
2023-04-21T01:29:37.986Z,16.1
2023-04-21T01:36:01.091Z,10.2
2023-04-21T01:42:21.056Z,10.2
2023-04-21T01:48:43.941Z,9.6
2023-04-21T01:55:03.986Z,9.6
2023-04-21T02:01:27.029Z,15.4
2023-04-21T02:07:46.928Z,15.4
2023-04-21T02:14:10.046Z,12.9
2023-04-21T02:20:29.912Z,12.9
2023-04-21T02:26:52.986Z,7.7
2023-04-21T02:33:13.029Z,7.7
2023-04-21T02:39:36.028Z,11.8
2023-04-21T02:45:55.985Z,11.8
2023-04-21T02:52:19.026Z,22.8
2023-04-21T02:58:39.032Z,22.8
2023-04-21T03:05:01.947Z,9.4
2023-04-21T03:11:21.981Z,9.4
2023-04-21T03:27:49.680Z,15.2
2023-04-21T03:34:09.921Z,15.2
2023-04-21T03:40:32.986Z,15.8
2023-04-21T03:46:53.011Z,15.8
2023-04-21T03:53:15.945Z,12.3
2023-04-21T03:59:35.943Z,12.3
2023-04-21T04:05:59.020Z,8.6
2023-04-21T04:12:19.035Z,8.6
2023-04-21T04:18:42.004Z,15.2
2023-04-21T04:25:02.047Z,15.2
2023-04-21T04:31:25.027Z,11.2
2023-04-21T04:37:45.031Z,11.2
2023-04-21T04:44:08.030Z,18.2
2023-04-21T04:50:27.962Z,18.2
2023-04-21T04:56:50.957Z,16.8
2023-04-21T05:03:11.093Z,16.8
2023-04-21T05:09:34.032Z,10.5
2023-04-21T05:15:53.974Z,10.5
2023-04-21T05:22:16.922Z,6.2
2023-04-21T05:28:36.923Z,6.2
2023-04-21T05:35:00.155Z,12.7
2023-04-21T05:41:20.031Z,12.7
2023-04-21T05:47:43.155Z,8.4
2023-04-21T05:54:02.938Z,8.4
2023-04-21T06:00:25.936Z,12.8
2023-04-21T06:06:45.969Z,12.8
2023-04-21T06:13:09.011Z,8.1
2023-04-21T06:19:29.171Z,8.1
2023-04-21T06:25:52.113Z,10.6
2023-04-21T06:32:12.035Z,10.6
2023-04-21T06:38:35.033Z,21.9
2023-04-21T06:44:54.905Z,21.9
2023-04-21T06:51:17.925Z,12.7
2023-04-21T06:57:37.993Z,12.7
2023-04-21T07:04:01.273Z,9.8
2023-04-21T07:10:21.061Z,9.8
2023-04-21T07:16:44.058Z,11.6
2023-04-21T07:23:03.989Z,11.6
2023-04-21T07:29:26.919Z,16.9
2023-04-21T07:35:46.995Z,16.9
2023-04-21T07:42:09.990Z,20.2
2023-04-21T07:48:30.019Z,20.2
2023-04-21T07:54:52.987Z,24.7
2023-04-21T08:01:13.100Z,24.7
2023-04-21T08:07:36.076Z,16.5
2023-04-21T08:13:56.182Z,16.5
2023-04-21T08:37:47.997Z,30.2
2023-04-21T08:44:10.963Z,30.2
2023-04-21T08:50:30.962Z,30.2
2023-04-21T08:56:58.986Z,12
2023-04-21T09:03:23.598Z,12
2023-04-21T09:09:36.939Z,15.8
2023-04-21T09:15:57.021Z,15.8
2023-04-21T09:22:20.038Z,17.5
2023-04-21T09:28:39.914Z,17.5
2023-04-21T09:35:02.985Z,12.7
2023-04-21T09:41:23.392Z,12.7
2023-04-21T09:47:45.970Z,15.1
2023-04-21T09:54:11.004Z,15.1
2023-04-21T10:00:29.011Z,13.7
2023-04-21T10:06:49.007Z,13.7
2023-04-21T10:13:11.948Z,16.7
2023-04-21T10:19:31.934Z,16.7
2023-04-21T10:25:54.935Z,12.6
2023-04-21T10:32:15.026Z,12.6
2023-04-21T10:38:37.965Z,8.8
2023-04-21T10:44:57.912Z,8.8
2023-04-21T10:51:21.002Z,10.1
2023-04-21T10:57:41.735Z,10.1
2023-04-21T11:04:04.986Z,10.5
2023-04-21T11:10:24.962Z,10.5
2023-04-21T11:16:47.922Z,9.4
2023-04-21T11:23:07.941Z,9.4
2023-04-21T11:29:30.937Z,6.6
2023-04-21T11:35:50.953Z,6.6
2023-04-21T11:42:13.951Z,4.4
2023-04-21T11:48:33.926Z,4.4
2023-04-21T11:54:56.987Z,6.7
2023-04-21T12:01:16.942Z,6.7
2023-04-21T12:07:39.986Z,3.2
2023-04-21T12:13:59.932Z,3.2
2023-04-21T12:20:22.895Z,5.6
2023-04-21T12:26:42.979Z,5.6
2023-04-21T12:33:05.944Z,7.1
2023-04-21T12:39:26.008Z,7.1
2023-04-21T12:45:49.043Z,4.5
2023-04-21T12:52:09.058Z,4.5
2023-04-21T12:58:31.941Z,4.2
2023-04-21T13:04:51.936Z,4.2
2023-04-21T13:11:14.964Z,4.2
2023-04-21T13:17:34.933Z,4.2
2023-04-21T13:23:57.935Z,6.9
2023-04-21T13:30:17.954Z,6.9
2023-04-21T13:36:40.932Z,11.2
2023-04-21T13:43:00.973Z,11.2
2023-04-21T13:49:23.895Z,3.7
2023-04-21T14:19:37.896Z,2.6
2023-04-21T14:26:00.935Z,4
2023-04-21T14:32:21.054Z,4
2023-04-21T14:38:43.920Z,2.7
2023-04-21T14:45:03.949Z,2.7
2023-04-21T14:51:26.983Z,4.7
2023-04-21T14:57:47.009Z,4.7
2023-04-21T15:04:10.067Z,3.2
2023-04-21T15:10:29.931Z,3.2
2023-04-21T15:16:52.971Z,2.9
2023-04-21T15:23:12.936Z,2.9
2023-04-21T15:29:36.148Z,2.4
2023-04-21T15:35:55.927Z,2.4
2023-04-21T15:42:18.906Z,3.1
2023-04-21T15:48:39.049Z,3.1
2023-04-21T15:55:01.899Z,1.4
2023-04-21T16:01:21.973Z,1.4
2023-04-21T16:07:44.932Z,9
2023-04-21T16:14:04.911Z,9
2023-04-21T16:20:27.961Z,4.2
2023-04-21T16:26:47.977Z,4.2
2023-04-21T16:33:10.907Z,1.9
2023-04-21T16:39:30.907Z,1.9
2023-04-21T16:45:53.991Z,1.5
2023-04-21T16:52:13.942Z,1.5
2023-04-21T16:58:36.911Z,2.3
2023-04-21T17:04:57.103Z,2.3
2023-04-21T17:11:19.899Z,1.7
2023-04-21T17:17:40.093Z,1.7
2023-04-21T17:24:02.988Z,1.7
2023-04-21T17:30:22.899Z,1.7
2023-04-21T17:36:45.953Z,3.6
2023-04-21T17:43:05.953Z,3.6
2023-04-21T17:49:28.879Z,4.4
2023-04-21T17:55:48.957Z,4.4
2023-04-21T18:02:12.037Z,3.9
2023-04-21T18:08:31.956Z,3.9
2023-04-21T18:14:54.931Z,3
2023-04-21T18:21:15.157Z,3
2023-04-21T18:27:37.957Z,3.9
2023-04-21T18:33:57.912Z,3.9
2023-04-21T18:40:20.926Z,3.4
2023-04-21T18:46:40.980Z,3.4
2023-04-21T18:53:03.903Z,2.9
2023-04-21T18:59:23.965Z,2.9
2023-04-21T19:05:46.890Z,4.9
2023-04-21T19:12:06.898Z,4.9
2023-04-21T19:18:29.976Z,1.4
2023-04-21T19:24:49.888Z,1.4
2023-04-21T19:31:12.960Z,3.3
2023-04-21T19:37:35.107Z,3.3
2023-04-21T19:43:55.898Z,1.3
2023-04-21T20:07:55.903Z,1.8
2023-04-21T20:14:15.887Z,1.8
2023-04-21T20:20:39.007Z,4.4
2023-04-21T20:26:58.917Z,4.4
2023-04-21T20:33:21.879Z,1.7
2023-04-21T20:39:41.922Z,1.7
2023-04-21T20:46:04.939Z,4.4
2023-04-21T20:52:24.898Z,4.4
2023-04-21T20:58:47.919Z,2.1
2023-04-21T21:05:07.945Z,2.1
2023-04-21T21:11:30.978Z,1.8
2023-04-21T21:17:50.916Z,1.8
2023-04-21T21:24:13.959Z,1.8
2023-04-21T21:30:33.909Z,1.8
2023-04-21T21:36:56.904Z,1
2023-04-21T21:43:16.978Z,1
2023-04-21T21:49:40.113Z,9.4
2023-04-21T21:55:59.898Z,9.4
2023-04-21T22:21:33.912Z,4.4
2023-04-21T22:27:53.956Z,4.4
2023-04-21T22:34:16.897Z,4.4
2023-04-21T22:40:37.015Z,4.4
2023-04-21T22:47:00.041Z,1.9
2023-04-21T22:53:19.946Z,1.9
2023-04-21T22:59:42.921Z,1.8
2023-04-21T23:06:03.064Z,1.8
2023-04-21T23:12:25.905Z,3.6
2023-04-21T23:18:46.059Z,3.6
2023-04-21T23:25:08.887Z,3.1
2023-04-21T23:31:29.018Z,3.1
2023-04-21T23:37:51.952Z,2
2023-04-21T23:44:11.976Z,2
2023-04-21T23:50:35.012Z,8.9
2023-04-21T23:56:55.022Z,8.9
